Time;durP1;ratioP1;P1;durP2;ratioP2;P2;SDS_P1;SDS_P2;PMS_P1;PMS_P2;Temp;Humidity;BMP_temperature;BMP_pressure;BME280_temperature;BME280_humidity;BME280_pressure;Samples;Min_cycle;Max_cycle;Signal;HPM_P1;HPM_P2
2023/09/14 00:01:01;;;;;;;6.00;4.15;;;;;;;;;;2581033;23;20000;-92
2023/09/14 00:02:02;;;;;;;7.60;3.72;;;;;;;;;;2582189;22;20012;-91
2023/09/14 00:03:02;;;;;;;5.72;3.67;;;;;;;;;;2581705;23;20481;-92
2023/09/14 00:04:03;;;;;;;6.10;3.80;;;;;;;;;;2568815;23;20044;-92
2023/09/14 00:05:04;;;;;;;5.95;3.50;;;;;;;;;;2568711;23;20010;-92
2023/09/14 00:06:05;;;;;;;6.90;3.42;;;;;;;;;;2568745;23;20004;-92
2023/09/14 00:07:05;;;;;;;6.25;3.72;;;;;;;;;;2581385;23;20000;-91
2023/09/14 00:08:06;;;;;;;4.57;3.30;;;;;;;;;;2581376;23;20330;-92
2023/09/14 00:09:06;;;;;;;6.60;3.67;;;;;;;;;;2568739;23;20433;-92
2023/09/14 00:10:08;;;;;;;5.03;3.53;;;;;;;;;;2585416;23;20004;-92
2023/09/14 00:11:09;;;;;;;6.07;3.92;;;;;;;;;;2580862;23;20012;-92
2023/09/14 00:12:09;;;;;;;6.57;3.42;;;;;;;;;;2585265;23;20477;-91
2023/09/14 00:13:10;;;;;;;5.63;3.63;;;;;;;;;;2598533;22;20019;-91
2023/09/14 00:14:11;;;;;;;7.80;3.75;;;;;;;;;;2598515;22;19999;-92
2023/09/14 00:15:12;;;;;;;7.32;3.72;;;;;;;;;;2598463;22;20151;-92
2023/09/14 00:16:12;;;;;;;6.32;3.97;;;;;;;;;;2598327;22;20032;-92
2023/09/14 00:17:13;;;;;;;5.95;3.63;;;;;;;;;;2598332;22;20351;-92
2023/09/14 00:18:14;;;;;;;5.43;3.70;;;;;;;;;;2581127;23;20000;-91
2023/09/14 00:19:14;;;;;;;5.53;3.72;;;;;;;;;;2136552;22;10338648;-91
2023/09/14 00:20:20;;;;;;;6.03;3.70;;;;;;;;;;2581336;23;20000;-91
2023/09/14 00:21:21;;;;;;;7.07;3.92;;;;;;;;;;2585432;22;20337;-91
2023/09/14 00:22:21;;;;;;;5.00;3.97;;;;;;;;;;2581053;23;19996;-91
2023/09/14 00:23:21;;;;;;;4.93;3.35;;;;;;;;;;2584406;23;20396;-90
2023/09/14 00:24:22;;;;;;;5.28;3.72;;;;;;;;;;2597810;22;20002;-91
2023/09/14 00:25:24;;;;;;;6.47;3.50;;;;;;;;;;2581355;23;20245;-91
2023/09/14 00:26:24;;;;;;;5.30;3.45;;;;;;;;;;2568857;23;20021;-91
2023/09/14 00:27:25;;;;;;;5.95;3.92;;;;;;;;;;2568592;23;20085;-92
2023/09/14 00:28:25;;;;;;;7.50;3.70;;;;;;;;;;2584103;23;20397;-90
2023/09/14 00:29:25;;;;;;;6.05;3.83;;;;;;;;;;2581251;23;20016;-92
2023/09/14 00:30:26;;;;;;;7.28;4.85;;;;;;;;;;2553208;22;20095;-91
2023/09/14 00:31:26;;;;;;;7.90;4.20;;;;;;;;;;2568661;23;20016;-91
2023/09/14 00:32:27;;;;;;;6.40;3.53;;;;;;;;;;2583872;23;20000;-92
2023/09/14 00:33:27;;;;;;;7.70;3.53;;;;;;;;;;2597202;22;20004;-92
2023/09/14 00:34:28;;;;;;;5.82;3.85;;;;;;;;;;2581169;23;20024;-91
2023/09/14 00:35:28;;;;;;;6.22;3.85;;;;;;;;;;2568711;23;20032;-92
2023/09/14 00:36:30;;;;;;;7.55;3.55;;;;;;;;;;2581098;23;20007;-90
2023/09/14 00:37:30;;;;;;;5.97;3.63;;;;;;;;;;2581235;23;20019;-92
2023/09/14 00:38:31;;;;;;;7.10;3.88;;;;;;;;;;2583618;22;20422;-93
2023/09/14 00:39:31;;;;;;;7.60;3.63;;;;;;;;;;2596971;22;20057;-91
2023/09/14 00:40:32;;;;;;;4.75;3.53;;;;;;;;;;2596900;22;20006;-91
2023/09/14 00:41:32;;;;;;;5.53;3.40;;;;;;;;;;2581317;23;20008;-91
2023/09/14 00:42:42;;;;;;;6.60;3.50;;;;;;;;;;2581236;23;20001;-91
2023/09/14 00:43:43;;;;;;;5.25;3.20;;;;;;;;;;2582450;23;20457;-91
2023/09/14 00:44:43;;;;;;;5.93;4.07;;;;;;;;;;2570066;23;20000;-91
2023/09/14 00:45:44;;;;;;;5.78;4.80;;;;;;;;;;2582496;23;20011;-92
2023/09/14 00:46:45;;;;;;;5.53;3.80;;;;;;;;;;2517584;23;20040;-91
2023/09/14 00:47:50;;;;;;;8.10;3.53;;;;;;;;;;2571307;23;20004;-91
2023/09/14 00:48:51;;;;;;;5.15;4.00;;;;;;;;;;2582489;23;20012;-92
2023/09/14 00:49:52;;;;;;;4.82;3.55;;;;;;;;;;2583527;23;20430;-91
2023/09/14 00:50:52;;;;;;;5.30;3.70;;;;;;;;;;2582452;23;20008;-91
2023/09/14 00:51:53;;;;;;;5.13;3.30;;;;;;;;;;2569902;23;20025;-92
2023/09/14 00:52:57;;;;;;;8.40;4.22;;;;;;;;;;2570129;23;20409;-91
2023/09/14 00:53:59;;;;;;;7.07;3.58;;;;;;;;;;2571147;23;19999;-91
2023/09/14 00:55:00;;;;;;;5.95;4.35;;;;;;;;;;2569926;23;20446;-92
2023/09/14 00:56:01;;;;;;;4.75;3.75;;;;;;;;;;2570703;23;20418;-91
2023/09/14 00:57:02;;;;;;;5.35;3.50;;;;;;;;;;2569919;23;20008;-92
2023/09/14 00:58:03;;;;;;;5.75;3.17;;;;;;;;;;2569779;23;19996;-91
2023/09/14 00:59:05;;;;;;;5.93;3.80;;;;;;;;;;2557670;23;20090;-91
2023/09/14 01:00:10;;;;;;;4.55;4.10;;;;;;;;;;2574188;23;20000;-92
2023/09/14 01:01:10;;;;;;;7.75;3.90;;;;;;;;;;2573683;23;20009;-91
2023/09/14 01:02:11;;;;;;;7.22;4.32;;;;;;;;;;2573710;23;20434;-91
2023/09/14 01:03:13;;;;;;;6.80;3.65;;;;;;;;;;2569865;23;20028;-90
2023/09/14 01:04:13;;;;;;;6.03;3.97;;;;;;;;;;2557780;23;20009;-91
2023/09/14 01:05:14;;;;;;;6.97;3.95;;;;;;;;;;2557702;23;20005;-91
2023/09/14 01:06:14;;;;;;;5.88;3.95;;;;;;;;;;2573378;23;20004;-90
2023/09/14 01:07:15;;;;;;;5.20;4.15;;;;;;;;;;2569955;23;20022;-90
2023/09/14 01:08:16;;;;;;;6.85;4.13;;;;;;;;;;2557401;23;20151;-92
2023/09/14 01:09:16;;;;;;;7.40;4.50;;;;;;;;;;2557425;23;20005;-91
2023/09/14 01:10:17;;;;;;;7.13;4.05;;;;;;;;;;2557593;23;20005;-91
2023/09/14 01:11:17;;;;;;;6.13;4.00;;;;;;;;;;2569460;23;20083;-92
2023/09/14 01:12:19;;;;;;;7.78;3.70;;;;;;;;;;2570091;23;20211;-92
2023/09/14 01:13:30;;;;;;;7.43;3.85;;;;;;;;;;2557641;23;20012;-91
2023/09/14 01:14:49;;;;;;;7.38;4.20;;;;;;;;;;2559633;23;20039;-91
2023/09/14 01:15:54;;;;;;;5.63;3.90;;;;;;;;;;2561288;23;20009;-92
2023/09/14 01:17:22;;;;;;;7.10;3.90;;;;;;;;;;2571188;23;20462;-91
2023/09/14 01:18:29;;;;;;;5.65;4.05;;;;;;;;;;2569690;23;20000;-91
2023/09/14 01:19:46;;;;;;;5.15;3.83;;;;;;;;;;2576168;23;20004;-91
2023/09/14 01:21:07;;;;;;;5.15;4.03;;;;;;;;;;2584016;23;20016;-90
2023/09/14 01:22:21;;;;;;;5.60;4.18;;;;;;;;;;2597758;23;19995;-91
2023/09/14 01:23:28;;;;;;;5.43;3.63;;;;;;;;;;2572725;23;20035;-91
2023/09/14 01:24:34;;;;;;;5.35;3.90;;;;;;;;;;2574944;23;20012;-91
2023/09/14 01:25:34;;;;;;;7.47;4.55;;;;;;;;;;2571112;23;20008;-91
2023/09/14 01:26:37;;;;;;;5.68;4.22;;;;;;;;;;2570111;23;20013;-92
2023/09/14 01:27:37;;;;;;;4.70;3.90;;;;;;;;;;2584504;23;20000;-92
2023/09/14 01:28:37;;;;;;;6.07;4.15;;;;;;;;;;2585042;23;20051;-91
2023/09/14 01:29:40;;;;;;;6.75;5.22;;;;;;;;;;2585072;23;19996;-90
2023/09/14 01:30:42;;;;;;;6.35;4.20;;;;;;;;;;2584648;23;20000;-90
2023/09/14 01:31:42;;;;;;;6.28;4.60;;;;;;;;;;2569923;23;20036;-91
2023/09/14 01:32:43;;;;;;;6.63;4.00;;;;;;;;;;2569797;23;20001;-91
2023/09/14 01:33:48;;;;;;;7.28;4.53;;;;;;;;;;2569618;23;20450;-92
2023/09/14 01:34:48;;;;;;;5.60;3.65;;;;;;;;;;2559447;23;20021;-92
2023/09/14 01:35:57;;;;;;;7.00;3.90;;;;;;;;;;2571086;23;20449;-91
2023/09/14 01:36:58;;;;;;;6.85;4.57;;;;;;;;;;2569951;23;20028;-92
2023/09/14 01:37:59;;;;;;;8.40;4.22;;;;;;;;;;2570026;23;20007;-92
2023/09/14 01:39:00;;;;;;;6.55;4.20;;;;;;;;;;2582769;23;20027;-93
2023/09/14 01:40:06;;;;;;;6.30;3.65;;;;;;;;;;2583596;23;20051;-91
2023/09/14 01:41:07;;;;;;;11.32;4.72;;;;;;;;;;2573722;23;20008;-91
2023/09/14 01:42:08;;;;;;;8.45;3.50;;;;;;;;;;2557080;23;20084;-91
2023/09/14 01:43:09;;;;;;;6.78;4.30;;;;;;;;;;2569642;23;20020;-91
2023/09/14 01:44:10;;;;;;;9.07;3.65;;;;;;;;;;2573516;23;20025;-91
2023/09/14 01:45:10;;;;;;;9.77;4.05;;;;;;;;;;2586793;23;20003;-92
2023/09/14 01:46:12;;;;;;;11.77;4.55;;;;;;;;;;2586690;23;19996;-91
2023/09/14 01:47:12;;;;;;;4.65;3.42;;;;;;;;;;2586696;23;20329;-92
2023/09/14 01:48:17;;;;;;;8.32;3.85;;;;;;;;;;2582172;23;20457;-91
2023/09/14 01:49:18;;;;;;;9.38;3.63;;;;;;;;;;2569828;23;20470;-91
2023/09/14 01:50:19;;;;;;;8.57;3.78;;;;;;;;;;2569585;23;20024;-92
2023/09/14 01:51:19;;;;;;;8.85;4.50;;;;;;;;;;2569708;23;20063;-91
2023/09/14 01:52:19;;;;;;;5.90;4.22;;;;;;;;;;2569740;23;20004;-92
2023/09/14 01:53:20;;;;;;;8.07;3.90;;;;;;;;;;2569686;23;20032;-92
2023/09/14 01:54:20;;;;;;;9.20;4.18;;;;;;;;;;2569628;23;20462;-92
2023/09/14 01:55:21;;;;;;;10.13;4.60;;;;;;;;;;2571940;23;20126;-92
2023/09/14 01:56:21;;;;;;;6.32;3.80;;;;;;;;;;2568905;23;20015;-90
2023/09/14 01:57:22;;;;;;;9.45;4.03;;;;;;;;;;2556657;23;20016;-92
2023/09/14 01:58:22;;;;;;;6.75;4.40;;;;;;;;;;2113096;23;10408428;-91
2023/09/14 01:59:22;;;;;;;6.63;4.00;;;;;;;;;;2569153;23;20457;-91
2023/09/14 02:00:25;;;;;;;8.25;4.30;;;;;;;;;;2556396;23;20017;-92
2023/09/14 02:01:26;;;;;;;6.63;3.95;;;;;;;;;;2556984;23;20423;-92
2023/09/14 02:02:27;;;;;;;6.93;4.18;;;;;;;;;;2556674;23;20029;-92
2023/09/14 02:03:27;;;;;;;6.38;3.90;;;;;;;;;;2569058;23;20001;-91
2023/09/14 02:04:27;;;;;;;6.28;3.80;;;;;;;;;;2571490;23;20008;-92
2023/09/14 02:05:28;;;;;;;10.10;3.80;;;;;;;;;;2569031;23;20091;-91
2023/09/14 02:06:28;;;;;;;8.05;4.30;;;;;;;;;;2568949;23;20328;-91
2023/09/14 02:07:29;;;;;;;7.13;3.95;;;;;;;;;;2569172;23;20331;-90
2023/09/14 02:08:32;;;;;;;6.90;4.60;;;;;;;;;;2569079;23;20036;-91
2023/09/14 02:09:33;;;;;;;6.25;4.03;;;;;;;;;;2557121;23;20351;-91
2023/09/14 02:10:33;;;;;;;6.43;4.40;;;;;;;;;;2569509;23;20004;-91
2023/09/14 02:11:35;;;;;;;8.13;3.92;;;;;;;;;;2569519;23;20012;-91
2023/09/14 02:12:35;;;;;;;13.38;4.68;;;;;;;;;;2571059;23;20044;-91
2023/09/14 02:13:37;;;;;;;8.65;4.75;;;;;;;;;;2581668;23;20429;-90
2023/09/14 02:14:37;;;;;;;6.32;3.97;;;;;;;;;;2569077;23;20011;-91
2023/09/14 02:15:38;;;;;;;6.00;4.32;;;;;;;;;;2569064;23;20008;-90
2023/09/14 02:16:38;;;;;;;10.63;5.20;;;;;;;;;;2569034;23;20363;-91
2023/09/14 02:17:39;;;;;;;6.78;4.50;;;;;;;;;;2556392;23;20025;-91
2023/09/14 02:18:39;;;;;;;7.80;4.22;;;;;;;;;;2556368;23;20040;-91
2023/09/14 02:19:40;;;;;;;8.65;4.82;;;;;;;;;;2556210;23;20011;-90
2023/09/14 02:20:40;;;;;;;7.20;3.92;;;;;;;;;;2568649;23;20094;-89
2023/09/14 02:21:40;;;;;;;6.80;4.82;;;;;;;;;;2568522;23;20017;-89
2023/09/14 02:22:41;;;;;;;8.38;4.28;;;;;;;;;;2556121;23;20047;-89
2023/09/14 02:23:41;;;;;;;6.53;4.03;;;;;;;;;;2570195;23;20072;-89
2023/09/14 02:24:41;;;;;;;5.78;4.50;;;;;;;;;;2568495;23;20153;-89
2023/09/14 02:25:43;;;;;;;5.18;3.80;;;;;;;;;;2555922;23;20072;-89
2023/09/14 02:26:44;;;;;;;8.27;4.45;;;;;;;;;;2556137;23;20040;-89
2023/09/14 02:27:44;;;;;;;7.85;4.18;;;;;;;;;;2556090;23;20024;-90
2023/09/14 02:28:44;;;;;;;6.55;3.90;;;;;;;;;;2570209;23;20004;-89
2023/09/14 02:29:45;;;;;;;6.13;4.00;;;;;;;;;;2568514;23;20087;-89
2023/09/14 02:30:46;;;;;;;6.85;4.45;;;;;;;;;;2555918;23;20028;-89
2023/09/14 02:31:46;;;;;;;6.78;3.92;;;;;;;;;;2568386;23;20016;-90
2023/09/14 02:32:46;;;;;;;7.97;4.45;;;;;;;;;;2568470;23;20000;-89
2023/09/14 02:33:47;;;;;;;7.30;4.30;;;;;;;;;;2556070;23;20013;-89
2023/09/14 02:34:48;;;;;;;15.02;4.20;;;;;;;;;;2569706;23;20001;-89
2023/09/14 02:35:50;;;;;;;9.32;4.45;;;;;;;;;;2581118;23;20469;-89
2023/09/14 02:36:51;;;;;;;10.73;5.00;;;;;;;;;;2582140;23;20024;-89
2023/09/14 02:37:51;;;;;;;6.53;3.88;;;;;;;;;;2568381;23;20032;-90
2023/09/14 02:38:52;;;;;;;7.47;4.63;;;;;;;;;;2555910;23;20005;-89
2023/09/14 02:39:52;;;;;;;9.85;4.65;;;;;;;;;;2555859;23;20035;-90
2023/09/14 02:40:53;;;;;;;8.13;4.32;;;;;;;;;;2569462;23;20004;-91
2023/09/14 02:41:53;;;;;;;6.78;4.32;;;;;;;;;;2581024;23;20441;-90
2023/09/14 02:42:53;;;;;;;8.45;4.43;;;;;;;;;;2568509;23;20489;-91
2023/09/14 02:43:54;;;;;;;11.73;4.63;;;;;;;;;;2556127;23;20469;-90
2023/09/14 02:44:54;;;;;;;5.75;4.25;;;;;;;;;;2569202;23;20024;-90
2023/09/14 02:45:55;;;;;;;7.45;4.38;;;;;;;;;;2568380;23;20489;-90
2023/09/14 02:46:56;;;;;;;10.50;4.55;;;;;;;;;;2569251;23;20019;-89
2023/09/14 02:47:56;;;;;;;6.43;4.30;;;;;;;;;;2582606;23;20476;-90
2023/09/14 02:48:56;;;;;;;8.80;4.05;;;;;;;;;;2582271;23;20004;-90
2023/09/14 02:49:58;;;;;;;5.50;3.97;;;;;;;;;;2582458;23;20034;-90
2023/09/14 02:50:59;;;;;;;5.95;4.53;;;;;;;;;;2568242;23;20011;-90
2023/09/14 02:51:59;;;;;;;11.65;4.70;;;;;;;;;;2568289;23;20021;-90
2023/09/14 02:53:00;;;;;;;7.97;4.90;;;;;;;;;;2581111;23;20087;-90
2023/09/14 02:54:00;;;;;;;7.00;4.43;;;;;;;;;;2582104;23;20040;-90
2023/09/14 02:55:00;;;;;;;9.48;4.65;;;;;;;;;;2568562;23;20013;-90
2023/09/14 02:56:06;;;;;;;5.75;4.20;;;;;;;;;;2568190;23;20466;-90
2023/09/14 02:57:06;;;;;;;6.07;4.47;;;;;;;;;;2568194;23;20005;-90
2023/09/14 02:58:08;;;;;;;6.20;4.35;;;;;;;;;;2555740;23;20079;-90
2023/09/14 02:59:08;;;;;;;10.38;4.13;;;;;;;;;;2555639;23;20052;-90
2023/09/14 03:00:12;;;;;;;6.78;4.63;;;;;;;;;;2572197;23;19996;-90
2023/09/14 03:01:12;;;;;;;8.55;4.28;;;;;;;;;;2585195;23;19992;-90
2023/09/14 03:02:13;;;;;;;6.90;3.88;;;;;;;;;;2568086;23;20122;-90
2023/09/14 03:03:13;;;;;;;6.63;4.00;;;;;;;;;;2555843;23;20163;-90
2023/09/14 03:04:14;;;;;;;6.35;4.28;;;;;;;;;;2571812;23;19996;-90
2023/09/14 03:05:14;;;;;;;9.80;3.95;;;;;;;;;;2585611;23;20207;-90
2023/09/14 03:06:15;;;;;;;9.77;4.03;;;;;;;;;;2568206;23;20001;-90
2023/09/14 03:07:15;;;;;;;6.75;4.55;;;;;;;;;;2559629;23;20041;-89
2023/09/14 03:08:16;;;;;;;6.15;4.20;;;;;;;;;;2571833;23;20039;-90
2023/09/14 03:09:16;;;;;;;8.00;4.30;;;;;;;;;;2572432;23;19992;-90
2023/09/14 03:10:17;;;;;;;7.15;4.70;;;;;;;;;;2587179;23;20008;-89
2023/09/14 03:11:17;;;;;;;6.25;4.38;;;;;;;;;;2590286;23;20064;-89
2023/09/14 03:12:18;;;;;;;6.25;3.75;;;;;;;;;;2573794;23;20036;-89
2023/09/14 03:13:19;;;;;;;6.07;4.30;;;;;;;;;;2572959;23;19999;-89
2023/09/14 03:14:21;;;;;;;9.45;4.03;;;;;;;;;;2576188;23;20170;-89
2023/09/14 03:15:42;;;;;;;5.65;3.72;;;;;;;;;;2576042;23;20016;-89
2023/09/14 03:16:42;;;;;;;;;;;;;;;;;;2575295;23;20039;-89
2023/09/14 03:17:42;;;;;;;9.20;4.37;;;;;;;;;;2575925;23;19915;-89
2023/09/14 03:18:45;;;;;;;6.22;4.65;;;;;;;;;;2561812;23;20016;-89
2023/09/14 03:19:48;;;;;;;7.13;3.80;;;;;;;;;;2562753;23;20035;-89
2023/09/14 03:20:52;;;;;;;7.18;3.95;;;;;;;;;;2575353;23;20000;-89
2023/09/14 03:21:52;;;;;;;5.22;4.07;;;;;;;;;;2575232;23;20098;-90
2023/09/14 03:22:54;;;;;;;6.45;3.80;;;;;;;;;;2560706;23;20009;-90
2023/09/14 03:23:56;;;;;;;8.90;4.20;;;;;;;;;;2561806;23;20068;-90
2023/09/14 03:24:58;;;;;;;6.35;3.63;;;;;;;;;;2574505;23;20399;-89
2023/09/14 03:26:02;;;;;;;11.25;4.20;;;;;;;;;;2574157;23;20007;-90
2023/09/14 03:27:04;;;;;;;10.23;3.90;;;;;;;;;;2574295;23;20027;-90
2023/09/14 03:28:06;;;;;;;5.97;3.50;;;;;;;;;;2579282;23;20001;-89
2023/09/14 03:29:09;;;;;;;7.10;3.83;;;;;;;;;;2579887;23;19999;-90
2023/09/14 03:30:12;;;;;;;8.82;4.00;;;;;;;;;;2574599;23;19999;-90
2023/09/14 03:31:13;;;;;;;9.70;4.20;;;;;;;;;;2548743;23;20010;-90
2023/09/14 03:32:18;;;;;;;11.73;4.50;;;;;;;;;;2563678;23;20053;-90
2023/09/14 03:33:19;;;;;;;8.13;4.40;;;;;;;;;;2576909;23;19991;-90
2023/09/14 03:34:24;;;;;;;6.20;3.80;;;;;;;;;;2560610;23;20001;-90
2023/09/14 03:35:25;;;;;;;7.88;4.22;;;;;;;;;;2577001;23;20429;-90
2023/09/14 03:36:27;;;;;;;7.20;4.15;;;;;;;;;;2561584;23;20001;-90
2023/09/14 03:37:31;;;;;;;8.75;4.32;;;;;;;;;;2563595;23;20105;-89
2023/09/14 03:38:32;;;;;;;9.95;3.85;;;;;;;;;;2578805;23;20004;-89
2023/09/14 03:39:36;;;;;;;8.57;4.63;;;;;;;;;;2585229;23;20322;-89
2023/09/14 03:40:36;;;;;;;7.43;4.10;;;;;;;;;;2580596;23;20004;-89
2023/09/14 03:41:36;;;;;;;6.93;4.63;;;;;;;;;;2588710;23;20015;-90
2023/09/14 03:42:37;;;;;;;6.53;5.13;;;;;;;;;;2568178;23;20008;-90
2023/09/14 03:43:37;;;;;;;7.78;4.55;;;;;;;;;;2568254;23;20335;-88
2023/09/14 03:44:37;;;;;;;7.88;4.97;;;;;;;;;;2568228;23;20012;-90
2023/09/14 03:45:38;;;;;;;8.73;4.75;;;;;;;;;;2570166;23;20035;-90
2023/09/14 03:46:38;;;;;;;6.40;4.65;;;;;;;;;;2568277;23;20423;-90
2023/09/14 03:47:39;;;;;;;9.07;4.80;;;;;;;;;;2570176;23;20016;-90
2023/09/14 03:48:39;;;;;;;7.75;4.32;;;;;;;;;;2568242;23;20350;-90
2023/09/14 03:49:40;;;;;;;7.88;4.35;;;;;;;;;;2570064;23;20067;-90
2023/09/14 03:50:40;;;;;;;9.38;4.53;;;;;;;;;;2576618;22;20060;-90
2023/09/14 03:51:40;;;;;;;6.22;4.47;;;;;;;;;;2567797;23;20040;-90
2023/09/14 03:52:41;;;;;;;8.27;4.78;;;;;;;;;;2582096;23;20012;-88
2023/09/14 03:53:41;;;;;;;7.22;4.25;;;;;;;;;;2577890;23;20007;-90
2023/09/14 03:54:42;;;;;;;7.07;4.15;;;;;;;;;;2568303;23;20004;-90
2023/09/14 03:55:42;;;;;;;10.38;4.50;;;;;;;;;;2568630;23;20005;-90
2023/09/14 03:56:43;;;;;;;7.50;5.05;;;;;;;;;;2567761;23;20352;-90
2023/09/14 03:57:53;;;;;;;7.80;4.43;;;;;;;;;;2549848;23;10001987;-89
2023/09/14 03:58:53;;;;;;;15.13;5.97;;;;;;;;;;2567756;23;20296;-89
2023/09/14 03:59:54;;;;;;;10.38;5.28;;;;;;;;;;2568032;23;20128;-90
2023/09/14 04:00:55;;;;;;;11.18;5.88;;;;;;;;;;2567919;23;20369;-89
2023/09/14 04:01:55;;;;;;;6.82;5.07;;;;;;;;;;2555421;23;20399;-88
2023/09/14 04:02:56;;;;;;;7.53;4.47;;;;;;;;;;2567821;23;20014;-88
2023/09/14 04:03:56;;;;;;;7.88;4.68;;;;;;;;;;2568627;23;20004;-90
2023/09/14 04:04:56;;;;;;;7.53;5.05;;;;;;;;;;2567650;23;20009;-90
2023/09/14 04:05:57;;;;;;;10.00;4.47;;;;;;;;;;2555431;23;20072;-90
2023/09/14 04:06:57;;;;;;;9.35;5.00;;;;;;;;;;2568537;23;20442;-89
2023/09/14 04:07:57;;;;;;;6.10;4.07;;;;;;;;;;2567910;23;20300;-90
2023/09/14 04:08:58;;;;;;;7.60;4.63;;;;;;;;;;2567789;23;20318;-90
2023/09/14 04:09:58;;;;;;;8.75;5.03;;;;;;;;;;2567805;23;20011;-90
2023/09/14 04:11:01;;;;;;;13.07;4.95;;;;;;;;;;2568210;23;20008;-90
2023/09/14 04:12:02;;;;;;;5.72;4.75;;;;;;;;;;2568222;23;20008;-89
2023/09/14 04:13:26;;;;;;;7.82;4.50;;;;;;;;;;2567913;23;20039;-90
2023/09/14 04:14:26;;;;;;;6.70;3.83;;;;;;;;;;2584054;23;20019;-90
2023/09/14 04:15:27;;;;;;;10.15;5.10;;;;;;;;;;2567674;23;20418;-90
2023/09/14 04:16:28;;;;;;;7.82;4.20;;;;;;;;;;2570521;23;20005;-88
2023/09/14 04:17:28;;;;;;;6.15;4.30;;;;;;;;;;2567688;23;20039;-90
2023/09/14 04:18:34;;;;;;;8.43;4.70;;;;;;;;;;2567469;23;20032;-89
2023/09/14 04:19:35;;;;;;;8.10;4.63;;;;;;;;;;2570974;23;20004;-89
2023/09/14 04:20:35;;;;;;;6.23;4.80;;;;;;;;;;2140002;23;10245159;-89
2023/09/14 04:21:35;;;;;;;6.75;4.22;;;;;;;;;;2583259;23;20311;-89
2023/09/14 04:22:37;;;;;;;16.20;4.75;;;;;;;;;;2567754;23;20014;-89
2023/09/14 04:23:38;;;;;;;8.23;4.72;;;;;;;;;;2569639;23;20005;-89
2023/09/14 04:24:38;;;;;;;8.00;5.40;;;;;;;;;;2583117;23;20068;-88
2023/09/14 04:25:44;;;;;;;9.60;5.32;;;;;;;;;;2567547;23;20099;-89
2023/09/14 04:26:45;;;;;;;8.52;4.43;;;;;;;;;;2570302;23;20031;-89
2023/09/14 04:27:47;;;;;;;9.70;5.45;;;;;;;;;;2582470;23;20015;-89
2023/09/14 04:28:47;;;;;;;9.15;4.28;;;;;;;;;;2580351;23;20128;-89
2023/09/14 04:29:47;;;;;;;7.00;4.82;;;;;;;;;;2567657;23;20490;-89
2023/09/14 04:30:54;;;;;;;8.55;4.45;;;;;;;;;;2567784;23;20091;-89
2023/09/14 04:31:56;;;;;;;11.50;5.05;;;;;;;;;;2556323;23;20017;-89
2023/09/14 04:32:57;;;;;;;9.70;5.55;;;;;;;;;;2568573;23;20110;-90
2023/09/14 04:33:57;;;;;;;11.18;5.07;;;;;;;;;;2568066;23;20447;-89
2023/09/14 04:34:58;;;;;;;24.80;12.00;;;;;;;;;;2567759;23;20005;-89
2023/09/14 04:36:02;;;;;;;13.65;6.95;;;;;;;;;;2568667;23;20030;-89
2023/09/14 04:37:03;;;;;;;14.02;9.35;;;;;;;;;;2581785;23;20000;-90
2023/09/14 04:38:05;;;;;;;16.63;5.25;;;;;;;;;;2581342;23;20004;-89
2023/09/14 04:39:06;;;;;;;14.27;6.32;;;;;;;;;;2076790;23;11455620;-89
2023/09/14 04:40:09;;;;;;;9.45;5.43;;;;;;;;;;2572044;23;19997;-89
2023/09/14 04:41:09;;;;;;;11.82;5.57;;;;;;;;;;2584962;23;19995;-89
2023/09/14 04:42:10;;;;;;;10.48;5.78;;;;;;;;;;2567794;23;20077;-90
2023/09/14 04:43:10;;;;;;;9.10;4.55;;;;;;;;;;2567912;23;19997;-89
2023/09/14 04:44:11;;;;;;;8.23;4.50;;;;;;;;;;2567887;23;20435;-89
2023/09/14 04:45:11;;;;;;;12.00;5.20;;;;;;;;;;2571428;23;20437;-89
2023/09/14 04:46:11;;;;;;;8.13;5.20;;;;;;;;;;2580036;23;20042;-89
2023/09/14 04:47:12;;;;;;;9.43;4.82;;;;;;;;;;2584080;23;19992;-89
2023/09/14 04:48:13;;;;;;;8.77;5.53;;;;;;;;;;2567494;23;20020;-89
2023/09/14 04:49:13;;;;;;;11.20;5.70;;;;;;;;;;2571266;23;20075;-90
2023/09/14 04:50:13;;;;;;;10.23;6.03;;;;;;;;;;2584432;23;20010;-90
2023/09/14 04:51:14;;;;;;;10.57;5.80;;;;;;;;;;2567443;23;20052;-89
2023/09/14 04:52:14;;;;;;;9.80;5.82;;;;;;;;;;2571187;23;20039;-90
2023/09/14 04:53:15;;;;;;;9.52;6.03;;;;;;;;;;2567459;23;20091;-89
2023/09/14 04:54:15;;;;;;;10.35;5.72;;;;;;;;;;2567582;23;20079;-89
2023/09/14 04:55:15;;;;;;;11.40;6.80;;;;;;;;;;2567440;23;20075;-90
2023/09/14 04:56:16;;;;;;;9.43;5.80;;;;;;;;;;2571119;23;20048;-90
2023/09/14 04:57:16;;;;;;;9.77;5.65;;;;;;;;;;2580298;23;20078;-89
2023/09/14 04:58:17;;;;;;;11.38;5.88;;;;;;;;;;2567658;23;20000;-89
2023/09/14 04:59:17;;;;;;;8.57;6.18;;;;;;;;;;2570893;23;19993;-89
2023/09/14 05:00:18;;;;;;;7.63;5.65;;;;;;;;;;2567850;23;20003;-90
2023/09/14 05:01:18;;;;;;;9.60;6.05;;;;;;;;;;2571218;23;19985;-90
2023/09/14 05:02:18;;;;;;;10.52;6.18;;;;;;;;;;2580404;23;20004;-90
2023/09/14 05:03:19;;;;;;;10.20;5.70;;;;;;;;;;2567906;23;20060;-89
2023/09/14 05:04:19;;;;;;;11.93;6.15;;;;;;;;;;2570989;23;19997;-90
2023/09/14 05:05:23;;;;;;;11.30;6.47;;;;;;;;;;2584000;23;19995;-90
2023/09/14 05:06:24;;;;;;;10.27;6.10;;;;;;;;;;2583699;23;20157;-88
2023/09/14 05:07:24;;;;;;;11.07;6.07;;;;;;;;;;2583969;23;20063;-90
2023/09/14 05:08:25;;;;;;;13.35;6.50;;;;;;;;;;2567642;23;20100;-90
2023/09/14 05:09:25;;;;;;;8.82;6.00;;;;;;;;;;2136454;23;10060545;-90
2023/09/14 05:10:27;;;;;;;9.32;5.70;;;;;;;;;;2582880;23;20480;-90
2023/09/14 05:11:27;;;;;;;8.00;5.15;;;;;;;;;;2583664;23;20445;-90
2023/09/14 05:12:30;;;;;;;12.00;5.65;;;;;;;;;;2567913;23;20012;-90
2023/09/14 05:13:30;;;;;;;7.68;5.60;;;;;;;;;;2570608;23;20359;-90
2023/09/14 05:14:32;;;;;;;8.75;6.28;;;;;;;;;;2583537;23;20067;-90
2023/09/14 05:15:32;;;;;;;10.45;5.80;;;;;;;;;;2567556;23;20406;-90
2023/09/14 05:16:32;;;;;;;10.13;6.05;;;;;;;;;;2569944;23;20024;-90
2023/09/14 05:17:34;;;;;;;8.02;7.18;;;;;;;;;;2583361;23;20027;-89
2023/09/14 05:18:34;;;;;;;11.35;6.68;;;;;;;;;;2567753;23;20103;-88
2023/09/14 05:19:35;;;;;;;9.35;7.20;;;;;;;;;;2569869;23;19997;-89
2023/09/14 05:20:35;;;;;;;14.80;7.70;;;;;;;;;;2567803;23;20497;-88
2023/09/14 05:21:35;;;;;;;13.80;7.22;;;;;;;;;;2555276;23;20020;-88
2023/09/14 05:22:38;;;;;;;12.38;7.65;;;;;;;;;;2569292;23;20008;-89
2023/09/14 05:23:38;;;;;;;13.68;7.18;;;;;;;;;;2568017;23;20095;-89
2023/09/14 05:24:40;;;;;;;8.88;6.60;;;;;;;;;;2569878;23;20012;-88
2023/09/14 05:25:41;;;;;;;9.85;6.50;;;;;;;;;;2583094;23;20004;-89
2023/09/14 05:26:41;;;;;;;12.63;7.82;;;;;;;;;;2568531;23;20008;-89
2023/09/14 05:27:42;;;;;;;9.65;7.97;;;;;;;;;;2555514;23;20072;-90
2023/09/14 05:28:42;;;;;;;9.57;7.03;;;;;;;;;;2569734;23;20365;-89
2023/09/14 05:29:44;;;;;;;8.48;6.78;;;;;;;;;;2583065;23;20409;-89
2023/09/14 05:30:45;;;;;;;8.43;6.40;;;;;;;;;;2568295;23;20095;-88
2023/09/14 05:31:45;;;;;;;9.45;6.22;;;;;;;;;;2568968;23;20523;-89
2023/09/14 05:32:45;;;;;;;7.18;6.40;;;;;;;;;;2570371;23;20004;-89
2023/09/14 05:33:46;;;;;;;8.00;6.40;;;;;;;;;;2568682;23;20013;-91
2023/09/14 05:34:46;;;;;;;11.27;6.75;;;;;;;;;;2569780;23;20001;-89
2023/09/14 05:35:50;;;;;;;9.82;6.45;;;;;;;;;;2581087;23;20382;-89
2023/09/14 05:36:52;;;;;;;15.32;7.05;;;;;;;;;;2569167;23;20008;-90
2023/09/14 05:37:52;;;;;;;9.70;6.28;;;;;;;;;;2557069;23;20088;-91
2023/09/14 05:38:53;;;;;;;7.55;6.20;;;;;;;;;;2556508;23;20009;-88
2023/09/14 05:39:54;;;;;;;10.40;6.50;;;;;;;;;;2569890;23;20000;-89
2023/09/14 05:40:54;;;;;;;7.97;6.28;;;;;;;;;;2568721;23;20171;-88
2023/09/14 05:41:55;;;;;;;10.95;6.72;;;;;;;;;;2569140;23;20433;-90
2023/09/14 05:42:55;;;;;;;7.57;6.40;;;;;;;;;;2568704;23;20012;-88
2023/09/14 05:43:56;;;;;;;10.10;6.63;;;;;;;;;;2556298;23;20048;-90
2023/09/14 05:44:56;;;;;;;9.45;6.50;;;;;;;;;;2556253;23;20001;-89
2023/09/14 05:45:56;;;;;;;10.23;5.70;;;;;;;;;;2568601;23;20393;-89
2023/09/14 05:46:57;;;;;;;14.70;6.90;;;;;;;;;;2568686;23;20009;-89
2023/09/14 05:47:57;;;;;;;11.85;6.57;;;;;;;;;;2568806;23;20088;-89
2023/09/14 05:48:57;;;;;;;10.10;6.47;;;;;;;;;;2556492;23;20465;-88
2023/09/14 05:49:58;;;;;;;11.13;7.20;;;;;;;;;;2556135;23;20036;-89
2023/09/14 05:50:58;;;;;;;8.60;7.00;;;;;;;;;;2556092;23;20028;-89
2023/09/14 05:51:58;;;;;;;10.35;6.95;;;;;;;;;;2568334;23;20012;-90
2023/09/14 05:52:59;;;;;;;10.05;6.85;;;;;;;;;;2567925;23;20008;-90
2023/09/14 05:53:59;;;;;;;8.25;6.78;;;;;;;;;;2568368;23;20082;-91
2023/09/14 05:55:00;;;;;;;7.88;6.80;;;;;;;;;;2581843;23;20031;-90
2023/09/14 05:56:00;;;;;;;8.90;5.70;;;;;;;;;;2567939;23;20004;-90
2023/09/14 05:57:00;;;;;;;11.50;7.00;;;;;;;;;;2568590;23;20001;-90
2023/09/14 05:58:01;;;;;;;8.75;6.70;;;;;;;;;;2568209;23;20481;-90
2023/09/14 05:59:01;;;;;;;8.70;5.72;;;;;;;;;;2569928;23;20005;-90
2023/09/14 06:00:10;;;;;;;8.48;6.00;;;;;;;;;;2568131;23;20070;-88
2023/09/14 06:01:10;;;;;;;7.55;6.43;;;;;;;;;;2568244;23;20008;-89
2023/09/14 06:02:10;;;;;;;9.90;6.22;;;;;;;;;;2568243;23;20000;-90
2023/09/14 06:03:11;;;;;;;8.88;6.35;;;;;;;;;;2556333;23;20001;-90
2023/09/14 06:04:11;;;;;;;8.43;6.28;;;;;;;;;;2555750;23;20001;-90
2023/09/14 06:05:12;;;;;;;9.13;6.03;;;;;;;;;;2555862;23;19997;-91
2023/09/14 06:06:12;;;;;;;9.55;6.10;;;;;;;;;;2556206;23;20049;-88
2023/09/14 06:07:13;;;;;;;10.98;5.97;;;;;;;;;;2571709;23;19992;-89
2023/09/14 06:08:13;;;;;;;9.65;5.57;;;;;;;;;;2568742;23;20016;-89